Terminal Aerodrome Forecast
Issued by NWS

Home | Current Version | Previous Version | Text Only | Print | Product List | Glossary On
Versions: 1 2 3 4 5 6 7 8 9 10 11 12 13 14 15 16 17 18 19 20 21 22 23 24 25 26
267
FTUS44 KOUN 161128
TAFWWR
TAF
KWWR 161128Z 1612/1712 28005KT P6SM OVC003
      TEMPO 1612/1615 2SM -FZDZ BR
     FM161600 29011KT P6SM OVC006
     FM162000 31014KT P6SM OVC015
     FM170200 32010KT 5SM BR OVC015
      TEMPO 1706/1710 2SM BR=

USA.gov is the U.S. government's official web portal to all federal, state and local government web resources and services.